Time;durP1;ratioP1;P1;durP2;ratioP2;P2;SDS_P1;SDS_P2;PMS_P1;PMS_P2;Temp;Humidity;BMP_temperature;BMP_pressure;BME280_temperature;BME280_humidity;BME280_pressure;Samples;Min_cycle;Max_cycle;Signal;HPM_P1;HPM_P2
2022/03/26 00:00:39;;;;;;;91.50;45.00;;;;;;;3.61;56.18;101418.29;106053;1271;22617;-62
2022/03/26 00:03:15;;;;;;;101.30;47.50;;;;;;;3.57;56.02;101418.55;105870;1271;26509;-60
2022/03/26 00:05:47;;;;;;;103.50;46.10;;;;;;;3.53;56.21;101418.04;105912;1271;22544;-60
2022/03/26 00:08:19;;;;;;;99.20;45.90;;;;;;;3.47;56.57;101422.16;105973;1271;24418;-60
2022/03/26 00:10:50;;;;;;;102.60;46.50;;;;;;;3.41;56.62;101420.85;106155;1269;22545;-60
2022/03/26 00:13:22;;;;;;;99.80;49.60;;;;;;;3.37;56.43;101419.36;105932;1271;22537;-58
2022/03/26 00:15:53;;;;;;;107.20;52.50;;;;;;;3.36;56.44;101419.45;105915;1271;22553;-60
2022/03/26 00:18:25;;;;;;;117.00;52.60;;;;;;;3.34;56.63;101420.34;106022;1271;24225;-60
2022/03/26 00:20:56;;;;;;;104.40;53.40;;;;;;;3.32;56.54;101415.92;105911;1271;22614;-60
2022/03/26 00:23:28;;;;;;;109.80;54.40;;;;;;;3.32;56.49;101415.61;106048;1271;22552;-60
2022/03/26 00:26:01;;;;;;;108.00;54.20;;;;;;;3.32;56.63;101413.79;106086;1271;24245;-61
2022/03/26 00:28:32;;;;;;;116.60;57.60;;;;;;;3.30;56.72;101416.48;106041;1271;24772;-60
2022/03/26 00:31:04;;;;;;;116.10;54.40;;;;;;;3.27;56.70;101412.48;105873;1271;25559;-59
2022/03/26 00:33:35;;;;;;;124.60;57.90;;;;;;;3.25;56.79;101407.67;105984;1271;25439;-60
2022/03/26 00:36:08;;;;;;;115.30;56.70;;;;;;;3.23;56.86;101404.92;106072;1271;22783;-59
2022/03/26 00:38:41;;;;;;;109.50;52.70;;;;;;;3.22;56.43;101404.30;106014;1271;22541;-60
2022/03/26 00:41:12;;;;;;;111.30;55.00;;;;;;;3.21;56.43;101400.20;106118;1271;22555;-59
2022/03/26 00:43:44;;;;;;;109.30;53.90;;;;;;;3.20;56.32;101400.29;105894;1271;23039;-61
2022/03/26 00:46:15;;;;;;;107.20;50.50;;;;;;;3.18;56.50;101395.49;106011;1271;22753;-59
2022/03/26 00:48:47;;;;;;;104.20;52.20;;;;;;;3.16;56.30;101394.24;106025;1271;24288;-59
2022/03/26 00:51:19;;;;;;;107.20;52.00;;;;;;;3.14;56.41;101400.31;106077;1271;22541;-59
2022/03/26 00:53:51;;;;;;;110.20;51.10;;;;;;;3.10;56.60;101391.58;105893;1271;25372;-59
2022/03/26 00:56:22;;;;;;;102.90;49.90;;;;;;;3.06;57.03;101395.22;105916;1271;22661;-59
2022/03/26 00:58:53;;;;;;;105.10;53.20;;;;;;;3.02;57.13;101392.00;106185;1271;22534;-59
2022/03/26 01:01:25;;;;;;;97.80;50.50;;;;;;;2.97;57.16;101393.75;105974;1271;22525;-60
2022/03/26 01:03:57;;;;;;;102.90;48.00;;;;;;;2.94;56.93;101390.77;105919;1271;27995;-60
2022/03/26 01:06:30;;;;;;;101.10;49.30;;;;;;;2.92;57.05;101391.02;106169;1271;24327;-60
2022/03/26 01:09:02;;;;;;;101.70;49.50;;;;;;;2.89;56.81;101386.92;106106;1269;25784;-60
2022/03/26 01:11:34;;;;;;;95.20;47.60;;;;;;;2.87;56.78;101384.56;105906;1271;25335;-59
2022/03/26 01:14:05;;;;;;;93.70;46.50;;;;;;;2.84;56.95;101383.94;105883;1271;24364;-60
2022/03/26 01:16:38;;;;;;;91.60;45.70;;;;;;;2.81;57.17;101383.95;105916;1271;25427;-61
2022/03/26 01:19:10;;;;;;;103.50;47.80;;;;;;;2.77;57.48;101379.56;105903;1271;22541;-58
2022/03/26 01:21:42;;;;;;;98.20;47.00;;;;;;;2.73;56.94;101371.05;106101;1271;22519;-58
2022/03/26 01:24:14;;;;;;;95.60;48.30;;;;;;;2.71;56.89;101370.52;105999;1271;24241;-59
2022/03/26 01:26:46;;;;;;;88.80;42.10;;;;;;;2.70;57.05;101364.06;105920;1271;26034;-60
2022/03/26 01:29:19;;;;;;;97.10;47.30;;;;;;;2.69;57.22;101364.38;106076;1271;25539;-59
2022/03/26 01:31:50;;;;;;;89.60;43.90;;;;;;;2.67;57.15;101364.06;105913;1271;22551;-60
2022/03/26 01:34:24;;;;;;;92.60;45.00;;;;;;;2.67;57.19;101368.16;105794;1271;22758;-60
2022/03/26 01:36:56;;;;;;;100.80;47.70;;;;;;;2.67;57.06;101367.14;105880;1271;23045;-59
2022/03/26 01:39:27;;;;;;;97.70;44.40;;;;;;;2.66;57.32;101367.21;105926;1271;22602;-60
2022/03/26 01:42:04;;;;;;;87.30;42.90;;;;;;;2.65;57.38;101364.39;105914;1271;22620;-60
2022/03/26 01:44:36;;;;;;;96.20;46.70;;;;;;;2.64;57.53;101360.85;105778;1271;22584;-60
2022/03/26 01:47:08;;;;;;;92.50;43.40;;;;;;;2.63;57.72;101359.98;105880;1271;24275;-59
2022/03/26 01:49:40;;;;;;;87.90;41.80;;;;;;;2.61;57.58;101362.11;105896;1271;25665;-58
2022/03/26 01:52:12;;;;;;;90.80;42.50;;;;;;;2.58;57.86;101362.91;106014;1271;25728;-59
2022/03/26 01:54:44;;;;;;;92.20;43.50;;;;;;;2.55;58.05;101357.09;106019;1271;22538;-60
2022/03/26 01:57:17;;;;;;;87.00;41.60;;;;;;;2.51;58.22;101354.10;105965;1271;22838;-59
2022/03/26 01:59:49;;;;;;;90.30;41.90;;;;;;;2.47;58.59;101354.35;105937;1271;25311;-60
2022/03/26 02:02:21;;;;;;;84.20;40.10;;;;;;;2.42;59.07;101358.69;105858;1271;22742;-60
2022/03/26 02:04:54;;;;;;;91.80;41.60;;;;;;;2.38;59.27;101363.34;105897;1271;24217;-59
2022/03/26 02:07:26;;;;;;;86.80;39.60;;;;;;;2.34;59.26;101362.80;106055;1271;24436;-60
2022/03/26 02:09:58;;;;;;;81.90;40.30;;;;;;;2.32;59.08;101363.91;105936;1271;22529;-58
2022/03/26 02:12:30;;;;;;;87.60;40.00;;;;;;;2.31;58.80;101360.20;106457;1271;22561;-60
2022/03/26 02:15:03;;;;;;;85.30;38.80;;;;;;;2.31;58.71;101359.42;105935;1271;22624;-60
2022/03/26 02:17:35;;;;;;;85.40;40.00;;;;;;;2.31;59.14;101361.78;105964;1271;26473;-60
2022/03/26 02:20:09;;;;;;;94.80;40.90;;;;;;;2.31;59.19;101360.52;106001;1271;22566;-59
2022/03/26 02:22:41;;;;;;;85.10;38.40;;;;;;;2.30;59.34;101358.32;106052;1271;22611;-61
2022/03/26 02:25:13;;;;;;;85.30;40.60;;;;;;;2.27;59.58;101356.05;105981;1271;27679;-59
2022/03/26 02:27:44;;;;;;;88.80;39.70;;;;;;;2.27;59.90;101357.70;106145;1268;22607;-61
2022/03/26 02:30:16;;;;;;;86.10;39.60;;;;;;;2.27;59.50;101355.17;106222;1268;22721;-59
2022/03/26 02:32:47;;;;;;;77.40;37.50;;;;;;;2.27;59.96;101361.64;105983;1268;22613;-60
2022/03/26 02:35:19;;;;;;;75.20;35.80;;;;;;;2.26;59.87;101360.77;106091;1269;22565;-59
2022/03/26 02:37:52;;;;;;;77.90;34.60;;;;;;;2.26;59.57;101355.02;106035;1271;22873;-58
2022/03/26 02:40:23;;;;;;;80.10;35.80;;;;;;;2.26;60.40;101362.34;105983;1268;23930;-59
2022/03/26 02:42:55;;;;;;;80.70;35.80;;;;;;;2.24;59.87;101357.54;105904;1271;22563;-59
2022/03/26 02:45:28;;;;;;;78.90;36.50;;;;;;;2.24;59.80;101354.08;105972;1271;22626;-60
2022/03/26 02:48:00;;;;;;;79.00;37.10;;;;;;;2.26;59.77;101353.67;105955;1271;22626;-60
2022/03/26 02:50:31;;;;;;;69.60;33.20;;;;;;;2.24;60.06;101350.61;106118;1271;24252;-59
2022/03/26 02:53:03;;;;;;;70.40;33.60;;;;;;;2.25;60.14;101348.41;105971;1270;24218;-59
2022/03/26 02:55:35;;;;;;;73.70;33.70;;;;;;;2.23;60.44;101349.91;106100;1270;22547;-61
2022/03/26 02:58:07;;;;;;;78.30;33.10;;;;;;;2.21;60.62;101348.81;105948;1269;22528;-58
2022/03/26 03:00:40;;;;;;;69.30;32.20;;;;;;;2.18;61.12;101352.11;105935;1271;25308;-58
2022/03/26 03:03:12;;;;;;;70.40;32.40;;;;;;;2.16;61.02;101344.09;106012;1271;23915;-61
2022/03/26 03:05:46;;;;;;;75.80;33.20;;;;;;;2.15;61.59;101349.13;105881;1271;22567;-59
2022/03/26 03:08:18;;;;;;;79.10;34.10;;;;;;;2.14;62.14;101350.14;105893;1271;22547;-61
2022/03/26 03:10:50;;;;;;;74.30;32.30;;;;;;;2.13;62.09;101346.21;106020;1271;24292;-59
2022/03/26 03:13:22;;;;;;;78.80;34.60;;;;;;;2.14;61.99;101342.59;105907;1271;22546;-59
2022/03/26 03:15:54;;;;;;;65.60;29.40;;;;;;;2.13;62.62;101341.02;105944;1270;22618;-59
2022/03/26 03:18:25;;;;;;;65.20;29.30;;;;;;;2.14;63.10;101337.16;105884;1271;23056;-58
2022/03/26 03:20:57;;;;;;;64.50;31.30;;;;;;;2.16;62.44;101331.66;106022;1268;22546;-59
2022/03/26 03:23:29;;;;;;;71.90;30.80;;;;;;;2.17;62.63;101331.27;105937;1271;22564;-59
2022/03/26 03:26:01;;;;;;;72.50;31.10;;;;;;;2.18;63.15;101327.64;105948;1271;22540;-60
2022/03/26 03:28:32;;;;;;;69.40;29.60;;;;;;;2.18;63.21;101322.45;105936;1271;23024;-59
2022/03/26 03:31:03;;;;;;;69.50;32.00;;;;;;;2.20;63.51;101322.83;106026;1271;22757;-59
2022/03/26 03:33:37;;;;;;;68.90;30.20;;;;;;;2.21;63.81;101320.63;106047;1271;23162;-58
2022/03/26 03:36:09;;;;;;;66.70;29.80;;;;;;;2.24;63.72;101320.23;105975;1271;22519;-58
2022/03/26 03:38:40;;;;;;;64.70;29.00;;;;;;;2.27;64.10;101317.95;105889;1270;25380;-59
2022/03/26 03:41:12;;;;;;;68.60;31.00;;;;;;;2.29;64.15;101328.55;106163;1270;22562;-60
2022/03/26 03:43:44;;;;;;;74.60;31.50;;;;;;;2.31;64.32;101327.46;106042;1271;23057;-60
2022/03/26 03:46:16;;;;;;;69.70;32.30;;;;;;;2.31;64.10;101322.58;105912;1271;22544;-60
2022/03/26 03:48:47;;;;;;;67.70;29.80;;;;;;;2.31;64.26;101324.46;106021;1271;22629;-59
2022/03/26 03:51:19;;;;;;;70.00;32.80;;;;;;;2.32;63.56;101320.05;105983;1271;23421;-58
2022/03/26 03:53:50;;;;;;;65.80;27.80;;;;;;;2.32;63.42;101326.66;106107;1269;24250;-59
2022/03/26 03:56:22;;;;;;;65.90;29.90;;;;;;;2.29;63.97;101324.55;105903;1271;24418;-60
2022/03/26 03:58:54;;;;;;;66.60;30.80;;;;;;;2.26;64.26;101323.30;106007;1271;24249;-60
2022/03/26 04:01:25;;;;;;;61.80;29.10;;;;;;;2.25;63.80;101319.29;106105;1270;24240;-58
2022/03/26 04:03:57;;;;;;;71.30;30.60;;;;;;;2.25;63.91;101317.63;106044;1271;24688;-59
2022/03/26 04:06:29;;;;;;;66.70;31.20;;;;;;;2.24;63.86;101313.45;105919;1271;24332;-60
2022/03/26 04:09:00;;;;;;;63.60;29.50;;;;;;;2.24;64.05;101317.31;106003;1270;26349;-60
2022/03/26 04:11:33;;;;;;;68.80;29.30;;;;;;;2.23;63.74;101316.30;105938;1271;22808;-59
2022/03/26 04:14:06;;;;;;;64.00;26.60;;;;;;;2.24;63.21;101319.05;105930;1271;22535;-60
2022/03/26 04:16:37;;;;;;;66.50;29.60;;;;;;;2.25;63.11;101320.31;105975;1270;22680;-60
2022/03/26 04:19:09;;;;;;;72.10;30.60;;;;;;;2.25;63.36;101321.80;105866;1271;22567;-62
2022/03/26 04:21:45;;;;;;;67.70;31.00;;;;;;;2.24;63.13;101320.55;106129;1271;22594;-59
2022/03/26 04:24:17;;;;;;;66.40;29.40;;;;;;;2.25;63.18;101322.44;105901;1271;22526;-61
2022/03/26 04:26:48;;;;;;;59.70;27.60;;;;;;;2.26;63.07;101317.86;106083;1271;25293;-62
2022/03/26 04:29:21;;;;;;;64.50;27.10;;;;;;;2.26;62.95;101314.08;106071;1271;22548;-61
2022/03/26 04:31:53;;;;;;;67.20;28.80;;;;;;;2.23;63.57;101314.02;109716;1271;22415;-61
2022/03/26 04:34:24;;;;;;;64.00;29.10;;;;;;;2.19;63.77;101314.17;109729;1271;22424;-60
2022/03/26 04:36:55;;;;;;;58.40;26.40;;;;;;;2.17;64.03;101310.55;106376;1271;25474;-60
2022/03/26 04:39:27;;;;;;;59.70;26.50;;;;;;;2.14;64.18;101309.77;105943;1271;24290;-60
2022/03/26 04:42:00;;;;;;;62.60;30.00;;;;;;;2.13;65.19;101312.45;106023;1271;22674;-59
2022/03/26 04:44:31;;;;;;;65.10;30.10;;;;;;;2.14;65.26;101309.15;106113;1271;24247;-59
2022/03/26 04:47:03;;;;;;;61.70;29.10;;;;;;;2.16;65.37;101316.23;105928;1271;22650;-60
2022/03/26 04:49:35;;;;;;;64.60;28.40;;;;;;;2.18;65.58;101315.52;105929;1271;22558;-60
2022/03/26 04:52:07;;;;;;;66.20;29.20;;;;;;;2.20;65.79;101312.84;105979;1271;24671;-61
2022/03/26 04:54:39;;;;;;;67.90;30.50;;;;;;;2.24;66.35;101319.45;106118;1271;22671;-60
2022/03/26 04:57:12;;;;;;;68.40;30.30;;;;;;;2.30;66.65;101316.75;105835;1271;22584;-58
2022/03/26 04:59:44;;;;;;;72.50;30.40;;;;;;;2.36;66.60;101317.59;105973;1271;22665;-59
2022/03/26 05:02:15;;;;;;;66.10;30.00;;;;;;;2.43;67.11;101317.90;105733;1274;22527;-58
2022/03/26 05:04:48;;;;;;;73.70;30.70;;;;;;;2.51;67.37;101320.95;105826;1271;25446;-60
2022/03/26 05:10:11;;;;;;;67.90;30.00;;;;;;;2.70;67.91;101316.00;105772;1271;24268;-60
2022/03/26 05:12:43;;;;;;;70.90;30.50;;;;;;;2.79;68.03;101307.55;105840;1271;22550;-59
2022/03/26 05:15:15;;;;;;;71.80;32.10;;;;;;;2.89;68.03;101307.10;106007;1271;22540;-59
2022/03/26 05:17:47;;;;;;;70.10;30.00;;;;;;;2.98;68.47;101309.35;105984;1271;25512;-60
2022/03/26 05:20:19;;;;;;;63.30;29.40;;;;;;;3.09;68.48;101306.92;105912;1271;22590;-58
2022/03/26 05:22:51;;;;;;;71.60;31.10;;;;;;;3.21;68.68;101306.94;106112;1271;24202;-60
2022/03/26 05:25:23;;;;;;;68.20;28.90;;;;;;;3.31;68.66;101307.11;106107;1271;22475;-60
2022/03/26 05:27:56;;;;;;;73.40;30.40;;;;;;;3.42;68.73;101311.05;106210;1271;25410;-59
2022/03/26 05:30:27;;;;;;;66.40;30.00;;;;;;;3.53;69.02;101311.23;105952;1271;22744;-60
2022/03/26 05:32:59;;;;;;;68.40;30.00;;;;;;;3.64;68.93;101311.69;106249;1272;22564;-57
2022/03/26 05:35:30;;;;;;;73.10;33.70;;;;;;;3.70;68.53;101316.69;106040;1271;25373;-58
2022/03/26 05:38:02;;;;;;;78.40;32.60;;;;;;;3.71;68.02;101313.06;106113;1271;22545;-60
2022/03/26 05:40:35;;;;;;;76.20;34.50;;;;;;;3.73;67.99;101312.41;106005;1271;24119;-59
2022/03/26 05:43:07;;;;;;;72.60;32.40;;;;;;;3.75;68.02;101312.33;106135;1271;24912;-60
2022/03/26 05:45:38;;;;;;;70.50;31.70;;;;;;;3.78;68.41;101312.30;106072;1271;22751;-59
2022/03/26 05:48:10;;;;;;;66.70;27.80;;;;;;;3.85;68.96;101312.39;106174;1271;22626;-60
2022/03/26 05:50:42;;;;;;;69.90;30.40;;;;;;;3.96;69.39;101314.65;106067;1271;23298;-59
2022/03/26 05:53:14;;;;;;;72.10;29.30;;;;;;;4.12;69.68;101319.33;106080;1271;22538;-58
2022/03/26 05:55:46;;;;;;;63.60;27.30;;;;;;;4.29;69.64;101320.28;105907;1271;25386;-61
2022/03/26 05:58:17;;;;;;;63.80;28.10;;;;;;;4.45;69.61;101315.84;105997;1271;23835;-64
2022/03/26 06:00:50;;;;;;;56.80;27.00;;;;;;;4.61;69.51;101317.25;106152;1272;23229;-61
2022/03/26 06:03:22;;;;;;;58.80;28.20;;;;;;;4.76;69.56;101319.35;106152;1271;24273;-60
2022/03/26 06:05:53;;;;;;;59.80;27.20;;;;;;;4.91;69.54;101323.13;106141;1271;22538;-61
2022/03/26 06:08:24;;;;;;;54.20;25.70;;;;;;;5.05;69.29;101327.77;106232;1271;25534;-58
2022/03/26 06:10:57;;;;;;;55.00;25.80;;;;;;;5.18;69.16;101322.54;106158;1271;24217;-57
2022/03/26 06:13:30;;;;;;;62.00;27.20;;;;;;;5.31;69.15;101322.91;106124;1271;22607;-59
2022/03/26 06:16:02;;;;;;;66.20;28.60;;;;;;;5.42;69.06;101322.17;106183;1271;22547;-57
2022/03/26 06:18:34;;;;;;;62.70;28.60;;;;;;;5.55;69.00;101318.20;106156;1271;25376;-59
2022/03/26 06:21:09;;;;;;;52.40;23.20;;;;;;;5.69;68.87;101320.76;106321;1271;22577;-59
2022/03/26 06:23:40;;;;;;;53.20;25.00;;;;;;;5.82;68.62;101317.55;106226;1271;24222;-59
2022/03/26 06:26:13;;;;;;;50.40;24.80;;;;;;;5.96;68.47;101311.80;106313;1271;25423;-59
2022/03/26 06:28:44;;;;;;;62.10;27.00;;;;;;;6.08;68.40;101312.07;106205;1271;22642;-57
2022/03/26 06:31:16;;;;;;;58.60;24.60;;;;;;;6.21;68.15;101316.18;107714;1272;22538;-59
2022/03/26 06:33:47;;;;;;;48.40;22.20;;;;;;;6.33;68.13;101314.54;106242;1271;25859;-57
2022/03/26 06:36:19;;;;;;;51.30;22.20;;;;;;;6.48;67.96;101316.17;106227;1271;23915;-59
2022/03/26 06:38:51;;;;;;;53.70;23.10;;;;;;;6.62;67.65;101316.94;106187;1271;24303;-60
2022/03/26 06:41:22;;;;;;;52.30;21.90;;;;;;;6.74;67.51;101316.70;106381;1271;23063;-59
2022/03/26 06:43:54;;;;;;;48.20;23.10;;;;;;;6.85;67.31;101318.11;106248;1271;22754;-58
2022/03/26 06:46:25;;;;;;;49.50;22.60;;;;;;;6.98;67.10;101315.94;106134;1271;25191;-59
2022/03/26 06:48:57;;;;;;;48.60;23.50;;;;;;;7.11;66.89;101313.36;106187;1271;22474;-59
2022/03/26 06:51:28;;;;;;;45.60;19.70;;;;;;;7.23;66.60;101313.02;106617;1271;22573;-58
2022/03/26 06:54:00;;;;;;;48.00;22.10;;;;;;;7.34;66.59;101310.55;106255;1271;25367;-59
2022/03/26 06:56:33;;;;;;;46.80;20.20;;;;;;;7.45;66.40;101309.98;106183;1271;25564;-59
2022/03/26 06:59:05;;;;;;;46.70;20.20;;;;;;;7.57;66.21;101308.13;106076;1271;24220;-59
2022/03/26 07:01:38;;;;;;;50.60;20.40;;;;;;;7.69;65.99;101309.82;107132;1271;25406;-58
2022/03/26 07:04:09;;;;;;;43.00;20.90;;;;;;;7.80;65.57;101312.16;106172;1271;25379;-59
2022/03/26 07:06:42;;;;;;;46.90;20.80;;;;;;;7.92;65.35;101317.20;105909;1271;25376;-56
2022/03/26 07:09:13;;;;;;;47.40;19.40;;;;;;;8.05;65.28;101310.91;105882;1271;25430;-58
2022/03/26 07:11:44;;;;;;;50.90;21.50;;;;;;;8.14;65.00;101311.30;107179;1271;25481;-57
2022/03/26 07:14:18;;;;;;;46.20;19.70;;;;;;;8.27;64.86;101312.67;105889;1271;23000;-58
2022/03/26 07:16:50;;;;;;;41.90;19.20;;;;;;;8.38;64.72;101318.25;105826;1271;22624;-58
2022/03/26 07:19:21;;;;;;;42.20;20.10;;;;;;;8.49;64.33;101319.23;105681;1271;22535;-58
2022/03/26 07:21:53;;;;;;;42.20;18.70;;;;;;;8.59;64.11;101320.07;105668;1271;22548;-61
2022/03/26 07:24:25;;;;;;;45.50;18.70;;;;;;;8.71;64.12;101319.17;106295;1271;24351;-58
2022/03/26 07:27:00;;;;;;;48.00;21.00;;;;;;;8.81;63.81;101321.44;106174;1271;22585;-59
2022/03/26 07:29:35;;;;;;;43.10;19.40;;;;;;;8.93;63.43;101320.45;106040;1271;22567;-60
2022/03/26 07:32:10;;;;;;;41.10;18.40;;;;;;;9.04;63.32;101318.24;105991;1271;23949;-57
2022/03/26 07:34:42;;;;;;;41.80;19.00;;;;;;;9.15;63.01;101312.23;106013;1271;22801;-58
2022/03/26 07:37:14;;;;;;;46.10;20.10;;;;;;;9.26;62.81;101309.63;106122;1271;22663;-57
2022/03/26 07:39:47;;;;;;;39.50;18.60;;;;;;;9.35;62.54;101308.93;105991;1271;25251;-60
2022/03/26 07:42:22;;;;;;;40.80;19.20;;;;;;;9.44;62.44;101300.77;105896;1271;22596;-60
2022/03/26 07:44:55;;;;;;;45.40;18.80;;;;;;;9.55;62.39;101300.66;105990;1271;25265;-60
2022/03/26 07:47:27;;;;;;;41.70;18.80;;;;;;;9.67;61.91;101301.69;106028;1271;22537;-60
2022/03/26 07:50:02;;;;;;;40.70;18.10;;;;;;;9.82;61.90;101300.52;106089;1271;22553;-59
2022/03/26 07:52:35;;;;;;;41.50;18.70;;;;;;;9.94;61.76;101296.13;105902;1271;23030;-58
2022/03/26 07:55:08;;;;;;;41.90;17.20;;;;;;;10.06;61.38;101291.89;105806;1271;22551;-61
2022/03/26 07:57:40;;;;;;;45.90;18.60;;;;;;;10.19;61.03;101289.21;107020;1271;22706;-58
2022/03/26 08:00:13;;;;;;;45.30;18.10;;;;;;;10.33;60.96;101286.11;105996;1271;23824;-57
2022/03/26 08:02:45;;;;;;;42.40;17.40;;;;;;;10.44;60.66;101281.80;107595;1273;22709;-56
2022/03/26 08:05:17;;;;;;;36.80;17.10;;;;;;;10.58;60.50;101280.42;106223;1271;24464;-55
2022/03/26 08:07:49;;;;;;;41.20;17.40;;;;;;;10.73;60.09;101276.12;106311;1271;22664;-58
2022/03/26 08:10:22;;;;;;;41.40;16.20;;;;;;;10.88;59.59;101271.64;106294;1271;22623;-57
2022/03/26 08:12:53;;;;;;;37.60;14.70;;;;;;;11.02;59.24;101262.96;106333;1271;22477;-57
2022/03/26 08:15:25;;;;;;;35.40;13.20;;;;;;;11.14;58.81;101267.21;106640;1271;22717;-60
2022/03/26 08:17:59;;;;;;;39.70;15.80;;;;;;;11.27;58.18;101270.29;106306;1271;22603;-59
2022/03/26 08:20:32;;;;;;;36.50;14.90;;;;;;;11.42;58.20;101275.23;106256;1271;25248;-61
2022/03/26 08:23:06;;;;;;;39.50;13.50;;;;;;;11.54;57.32;101277.35;107637;1271;22713;-61
2022/03/26 08:28:26;;;;;;;38.70;14.40;;;;;;;11.77;56.60;101273.11;106324;1271;25261;-59
2022/03/26 08:30:58;;;;;;;41.50;15.10;;;;;;;11.86;56.55;101274.55;107129;1271;25261;-60
2022/03/26 08:33:30;;;;;;;39.50;14.10;;;;;;;11.98;56.09;101280.61;107630;1271;22547;-58
2022/03/26 08:36:03;;;;;;;34.60;15.30;;;;;;;12.08;56.13;101277.39;106398;1271;25249;-60
2022/03/26 08:38:35;;;;;;;35.60;13.80;;;;;;;12.22;55.76;101278.80;106582;1271;25899;-60
2022/03/26 08:41:06;;;;;;;36.80;15.50;;;;;;;12.33;54.79;101281.02;106326;1271;24262;-58
2022/03/26 08:43:38;;;;;;;36.40;14.00;;;;;;;12.43;53.84;101280.09;106276;1271;23152;-59
2022/03/26 08:46:10;;;;;;;36.80;14.00;;;;;;;12.55;53.24;101272.93;106454;1271;22918;-62
2022/03/26 08:48:42;;;;;;;32.50;13.50;;;;;;;12.64;53.40;101275.46;106060;1273;24801;-60
2022/03/26 08:51:14;;;;;;;43.80;15.90;;;;;;;12.70;52.95;101266.41;106057;1271;25937;-59
2022/03/26 08:53:46;;;;;;;39.60;14.90;;;;;;;12.74;52.87;101263.07;106470;1271;22462;-61
2022/03/26 08:56:17;;;;;;;44.30;14.80;;;;;;;12.80;51.98;101260.32;106464;1271;22688;-58
2022/03/26 08:58:57;;;;;;;35.60;13.10;;;;;;;12.85;51.62;101245.66;106991;1271;23315;-60
2022/03/26 09:01:30;;;;;;;40.20;14.60;;;;;;;12.93;51.19;101244.38;107142;1271;22598;-58
2022/03/26 09:04:02;;;;;;;37.00;14.60;;;;;;;12.99;50.58;101243.98;107224;1271;22539;-59
2022/03/26 09:06:34;;;;;;;36.40;12.80;;;;;;;13.05;50.74;101244.91;106564;1271;25498;-59
2022/03/26 09:09:06;;;;;;;37.00;14.30;;;;;;;13.12;50.49;101241.42;106161;1271;24206;-59
2022/03/26 09:11:37;;;;;;;41.80;14.50;;;;;;;13.22;50.39;101241.11;106215;1271;22577;-60
2022/03/26 09:14:09;;;;;;;34.60;14.10;;;;;;;13.31;49.85;101240.41;106224;1271;25353;-58
2022/03/26 09:16:41;;;;;;;34.60;13.40;;;;;;;13.37;49.60;101241.98;106147;1271;22553;-60
2022/03/26 09:19:13;;;;;;;36.40;14.50;;;;;;;13.41;49.45;101239.22;106215;1271;25548;-61
2022/03/26 09:21:46;;;;;;;36.40;14.30;;;;;;;13.45;48.90;101237.17;106342;1271;25383;-59
2022/03/26 09:24:18;;;;;;;34.30;11.90;;;;;;;13.51;48.56;101236.73;106361;1273;23091;-60
2022/03/26 09:26:50;;;;;;;36.40;14.10;;;;;;;13.60;48.50;101232.66;106923;1272;25246;-59
2022/03/26 09:29:22;;;;;;;35.30;14.00;;;;;;;13.68;48.84;101237.80;106467;1273;24347;-59
2022/03/26 09:32:02;;;;;;;36.70;13.60;;;;;;;13.78;48.19;101235.58;106159;1273;22564;-59
2022/03/26 09:34:35;;;;;;;31.20;12.30;;;;;;;13.84;48.14;101235.89;106258;1272;22973;-59
2022/03/26 09:37:06;;;;;;;32.70;13.70;;;;;;;13.89;47.57;101236.01;106282;1271;22625;-61
2022/03/26 09:39:38;;;;;;;27.50;11.40;;;;;;;13.90;47.11;101234.90;106256;1271;22521;-59
2022/03/26 09:42:11;;;;;;;36.50;11.90;;;;;;;13.93;46.06;101234.92;102332;1273;5438807;-60
2022/03/26 09:44:55;;;;;;;31.20;12.20;;;;;;;13.96;46.65;101228.91;106255;1272;24255;-59
2022/03/26 09:47:28;;;;;;;37.50;13.10;;;;;;;14.03;46.74;101227.58;106240;1273;22963;-61
2022/03/26 09:50:01;;;;;;;34.70;12.40;;;;;;;14.09;46.44;101226.67;106530;1273;22475;-58
2022/03/26 09:52:33;;;;;;;36.80;12.60;;;;;;;14.12;46.54;101220.92;106464;1271;22548;-60
2022/03/26 09:55:06;;;;;;;33.70;12.00;;;;;;;14.16;46.12;101231.10;107563;1273;22521;-59
2022/03/26 09:57:38;;;;;;;36.00;12.60;;;;;;;14.20;45.84;101215.31;106326;1272;22555;-60
2022/03/26 10:00:12;;;;;;;30.30;11.10;;;;;;;14.24;45.69;101209.88;106950;1273;23806;-58
2022/03/26 10:02:43;;;;;;;29.80;11.40;;;;;;;14.29;45.40;101213.63;106265;1273;22547;-61
2022/03/26 10:05:20;;;;;;;28.80;11.50;;;;;;;14.33;45.64;101207.12;109685;1272;22487;-62
2022/03/26 10:07:52;;;;;;;38.20;11.50;;;;;;;14.36;45.34;101209.89;109643;1271;23241;-60
2022/03/26 10:10:27;;;;;;;35.60;11.90;;;;;;;14.42;44.38;101204.94;106494;1273;24351;-60
2022/03/26 10:12:59;;;;;;;32.20;10.40;;;;;;;14.47;44.39;101199.82;108325;1272;25376;-59
2022/03/26 10:15:30;;;;;;;25.10;8.80;;;;;;;14.50;44.18;101199.83;108666;1271;25268;-58
2022/03/26 10:18:13;;;;;;;31.80;9.80;;;;;;;14.53;43.99;101198.48;105653;1272;25739;-59
2022/03/26 10:20:57;;;;;;;26.40;9.10;;;;;;;14.56;44.01;101191.41;107188;1272;25436;-58
2022/03/26 10:23:30;;;;;;;27.50;8.40;;;;;;;14.61;43.74;101193.07;106247;1258;92188;-77
2022/03/26 10:26:13;;;;;;;28.60;9.30;;;;;;;14.66;43.57;101194.38;108349;1269;25359;-78
2022/03/26 10:28:51;;;;;;;30.20;9.20;;;;;;;14.67;43.38;101198.35;108209;1268;22553;-79
2022/03/26 10:34:19;;;;;;;25.70;7.10;;;;;;;14.70;43.35;101185.02;106536;1270;22733;-78
2022/03/26 10:37:00;;;;;;;26.40;9.00;;;;;;;14.76;43.33;101191.85;106577;1270;25457;-77
2022/03/26 10:39:33;;;;;;;25.40;8.40;;;;;;;14.83;43.28;101188.71;107035;1271;25920;-77
2022/03/26 10:42:06;;;;;;;27.00;8.30;;;;;;;14.91;42.88;101195.08;106599;1270;22568;-77
2022/03/26 10:44:37;;;;;;;22.80;7.90;;;;;;;14.98;43.16;101188.39;106602;1270;22573;-78
2022/03/26 10:47:16;;;;;;;26.40;7.40;;;;;;;15.06;43.07;101187.59;106660;1270;25570;-77
2022/03/26 10:49:48;;;;;;;27.50;8.40;;;;;;;15.15;43.23;101184.00;106527;1271;24217;-77
2022/03/26 10:52:20;;;;;;;24.20;7.50;;;;;;;15.23;43.22;101191.24;107298;1270;25232;-76
2022/03/26 10:54:52;;;;;;;17.40;5.90;;;;;;;15.28;43.30;101186.97;106715;1270;25587;-77
2022/03/26 10:57:24;;;;;;;15.50;4.70;;;;;;;15.29;43.25;101189.28;106595;1271;24074;-77
2022/03/26 10:59:57;;;;;;;21.30;7.00;;;;;;;15.26;43.07;101184.19;106631;1270;25223;-77
2022/03/26 11:02:28;;;;;;;18.70;7.30;;;;;;;15.23;43.03;101191.04;106555;1270;25465;-77
2022/03/26 11:04:59;;;;;;;21.20;7.20;;;;;;;15.19;43.21;101184.84;106574;1270;26998;-77
2022/03/26 11:07:33;;;;;;;18.50;5.70;;;;;;;15.17;43.46;101179.02;106552;1271;25194;-77
2022/03/26 11:10:07;;;;;;;16.40;3.70;;;;;;;15.21;43.68;101182.71;106542;1270;22532;-77
2022/03/26 11:12:44;;;;;;;19.50;4.60;;;;;;;15.30;43.99;101189.51;106576;1270;23354;-77
2022/03/26 11:15:21;;;;;;;12.00;2.20;;;;;;;15.41;43.91;101183.58;106669;1270;22579;-77
2022/03/26 11:18:14;;;;;;;10.30;2.00;;;;;;;15.46;43.90;101182.27;106644;1270;25312;-77
2022/03/26 11:21:18;;;;;;;11.70;2.60;;;;;;;15.54;43.44;101178.36;106514;1271;22665;-75
2022/03/26 11:24:09;;;;;;;11.90;2.00;;;;;;;15.58;43.51;101165.06;106100;1276;22550;-78
2022/03/26 11:26:54;;;;;;;11.20;2.80;;;;;;;15.65;43.01;101160.65;106056;1276;23988;-77
2022/03/26 11:29:41;;;;;;;10.90;1.90;;;;;;;15.65;42.78;101155.65;106052;1276;24409;-77
2022/03/26 11:32:21;;;;;;;11.30;2.30;;;;;;;15.64;42.69;101160.34;106163;1276;23415;-77
2022/03/26 11:35:00;;;;;;;8.50;1.90;;;;;;;15.67;42.90;101151.58;106042;1276;23302;-77
2022/03/26 11:37:32;;;;;;;16.80;2.50;;;;;;;15.74;42.77;101159.44;106048;1276;23074;-77
2022/03/26 11:40:03;;;;;;;7.00;1.80;;;;;;;15.80;43.02;101153.84;106045;1276;22684;-77